Key Field
KMEI : now visible

Airfield :











YOU CAN JOIN US ON...

 
LOGIN :

Register | Disclaimer

   EN    FR    IT 

 









Legend :    VFR   Marginal VFR   IFR   Intensive IFR   Very Intensive IFR
Visi :
Ceiling :
>= 8 km
>= 3000ft
5 to 8 km
1000 to 3000 ft
1500m to 5 km
500 to 1000 ft
800 to 1500m
200 to 500 ft
< 800m
< 200 ft
Symbols :   Thunderstorms  Fog  Heavy snow  Heavy precipitations  Wind > 20 kt






- Airport Elevation : 297 ft
- IATA code : MEI


KMEI - Key Field

EXPIRED METARs :
  • 071858Z 19004KT 10SM BKN019 OVC025 25/21 A3001 RMK AO2 SLP158 T02500206 $
  • 071833Z 20005KT 10SM OVC016 24/21 A3002 RMK AO2 T02440206 $

TAF KMEI
Valid from the 07 at 18:00 until the 08 at 18:00 UTC


071728Z 0718/0818 21006KT P6SM SCT070 BKN120
FM071900 19007KT 2SM RA BR VCTS BKN012 OVC025CB
FM072300 18005KT P6SM VCSH BKN007 OVC015
FM080400 17009KT 6SM BR OVC007
FM081600 25009KT P6SM OVC015



MET'MAP, your aeronautical weather chart ! - Copyright ORBIFLY December 2007 - Disclaimer

ORBIFLY MET'MAP TEAM :

Programming & Development : Alexandra Zaïnal
Concept & original design : Baudouin d'Aumeries
Assistance for programming : Marc-Olivier Méhu
Technical & hardware support : Manuel Goepfert

Contact : metmap@orbifly.com




SOURCES & CREDITS :

   NOAA       Earth
Advisory